sensor_id;sensor_type;location;lat;lon;timestamp;P1;durP1;ratioP1;P2;durP2;ratioP2
73684;SDS011;61985;51.070;14.064;2022-09-28T00:01:26;0.80;;;0.80;;
73684;SDS011;61985;51.070;14.064;2022-09-28T00:03:52;1.35;;;0.75;;
73684;SDS011;61985;51.070;14.064;2022-09-28T00:06:20;2.50;;;1.02;;
73684;SDS011;61985;51.070;14.064;2022-09-28T00:08:48;1.55;;;1.10;;
73684;SDS011;61985;51.070;14.064;2022-09-28T00:11:14;1.40;;;1.10;;
73684;SDS011;61985;51.070;14.064;2022-09-28T00:13:40;2.33;;;1.10;;
73684;SDS011;61985;51.070;14.064;2022-09-28T00:16:07;1.65;;;0.90;;
73684;SDS011;61985;51.070;14.064;2022-09-28T00:18:35;2.08;;;0.80;;
73684;SDS011;61985;51.070;14.064;2022-09-28T00:21:04;1.35;;;1.05;;
73684;SDS011;61985;51.070;14.064;2022-09-28T00:23:36;2.90;;;0.80;;
73684;SDS011;61985;51.070;14.064;2022-09-28T00:26:21;1.50;;;0.85;;
73684;SDS011;61985;51.070;14.064;2022-09-28T00:28:49;2.20;;;1.00;;
73684;SDS011;61985;51.070;14.064;2022-09-28T00:31:16;1.40;;;1.10;;
73684;SDS011;61985;51.070;14.064;2022-09-28T00:33:41;1.60;;;1.10;;
73684;SDS011;61985;51.070;14.064;2022-09-28T00:36:07;0.88;;;0.88;;
73684;SDS011;61985;51.070;14.064;2022-09-28T00:38:32;1.55;;;1.02;;
73684;SDS011;61985;51.070;14.064;2022-09-28T00:40:57;0.90;;;0.90;;
73684;SDS011;61985;51.070;14.064;2022-09-28T00:43:23;1.92;;;1.00;;
73684;SDS011;61985;51.070;14.064;2022-09-28T00:45:57;1.15;;;1.02;;
73684;SDS011;61985;51.070;14.064;2022-09-28T00:48:27;1.25;;;0.90;;
73684;SDS011;61985;51.070;14.064;2022-09-28T00:50:55;1.80;;;1.10;;
73684;SDS011;61985;51.070;14.064;2022-09-28T00:53:23;1.55;;;1.17;;
73684;SDS011;61985;51.070;14.064;2022-09-28T00:55:56;1.10;;;0.90;;
73684;SDS011;61985;51.070;14.064;2022-09-28T00:58:31;1.58;;;1.10;;
73684;SDS011;61985;51.070;14.064;2022-09-28T01:01:00;2.97;;;1.10;;
73684;SDS011;61985;51.070;14.064;2022-09-28T01:03:27;2.00;;;1.20;;
73684;SDS011;61985;51.070;14.064;2022-09-28T01:05:52;2.67;;;1.15;;
73684;SDS011;61985;51.070;14.064;2022-09-28T01:08:20;1.52;;;1.10;;
73684;SDS011;61985;51.070;14.064;2022-09-28T01:10:47;2.47;;;1.42;;
73684;SDS011;61985;51.070;14.064;2022-09-28T01:13:13;1.85;;;1.00;;
73684;SDS011;61985;51.070;14.064;2022-09-28T01:15:42;2.58;;;1.17;;
73684;SDS011;61985;51.070;14.064;2022-09-28T01:18:26;1.30;;;1.17;;
73684;SDS011;61985;51.070;14.064;2022-09-28T01:21:03;1.88;;;1.30;;
73684;SDS011;61985;51.070;14.064;2022-09-28T01:23:47;2.03;;;1.40;;
73684;SDS011;61985;51.070;14.064;2022-09-28T01:26:32;2.05;;;1.33;;
73684;SDS011;61985;51.070;14.064;2022-09-28T01:29:52;4.32;;;2.03;;
73684;SDS011;61985;51.070;14.064;2022-09-28T01:37:51;5.50;;;2.00;;
73684;SDS011;61985;51.070;14.064;2022-09-28T01:40:19;3.83;;;1.80;;
73684;SDS011;61985;51.070;14.064;2022-09-28T01:42:48;4.50;;;2.13;;
73684;SDS011;61985;51.070;14.064;2022-09-28T01:45:19;5.57;;;2.22;;
73684;SDS011;61985;51.070;14.064;2022-09-28T01:47:49;4.95;;;2.13;;
73684;SDS011;61985;51.070;14.064;2022-09-28T01:50:19;3.90;;;2.08;;
73684;SDS011;61985;51.070;14.064;2022-09-28T01:52:53;5.65;;;2.35;;
73684;SDS011;61985;51.070;14.064;2022-09-28T01:55:24;4.47;;;2.20;;
73684;SDS011;61985;51.070;14.064;2022-09-28T02:00:45;4.25;;;2.10;;
73684;SDS011;61985;51.070;14.064;2022-09-28T02:03:18;4.72;;;2.20;;
73684;SDS011;61985;51.070;14.064;2022-09-28T02:05:54;8.48;;;2.80;;
73684;SDS011;61985;51.070;14.064;2022-09-28T02:08:25;4.80;;;2.42;;
73684;SDS011;61985;51.070;14.064;2022-09-28T02:13:27;5.18;;;2.30;;
73684;SDS011;61985;51.070;14.064;2022-09-28T02:16:02;4.28;;;2.35;;
73684;SDS011;61985;51.070;14.064;2022-09-28T02:18:41;3.72;;;2.03;;
73684;SDS011;61985;51.070;14.064;2022-09-28T02:21:10;3.47;;;1.88;;
73684;SDS011;61985;51.070;14.064;2022-09-28T02:23:39;4.65;;;2.45;;
73684;SDS011;61985;51.070;14.064;2022-09-28T02:26:20;5.05;;;2.65;;
73684;SDS011;61985;51.070;14.064;2022-09-28T02:28:51;5.95;;;2.53;;
73684;SDS011;61985;51.070;14.064;2022-09-28T02:31:16;6.90;;;3.00;;
73684;SDS011;61985;51.070;14.064;2022-09-28T02:33:42;6.43;;;2.85;;
73684;SDS011;61985;51.070;14.064;2022-09-28T02:36:08;6.97;;;3.30;;
73684;SDS011;61985;51.070;14.064;2022-09-28T02:38:34;6.43;;;3.03;;
73684;SDS011;61985;51.070;14.064;2022-09-28T02:41:07;7.55;;;3.65;;
73684;SDS011;61985;51.070;14.064;2022-09-28T02:44:18;7.32;;;3.65;;
73684;SDS011;61985;51.070;14.064;2022-09-28T02:46:57;10.05;;;3.83;;
73684;SDS011;61985;51.070;14.064;2022-09-28T03:08:06;9.52;;;4.85;;
73684;SDS011;61985;51.070;14.064;2022-09-28T03:13:08;9.90;;;4.15;;
73684;SDS011;61985;51.070;14.064;2022-09-28T03:15:35;12.20;;;4.47;;
73684;SDS011;61985;51.070;14.064;2022-09-28T03:18:01;10.35;;;5.00;;
73684;SDS011;61985;51.070;14.064;2022-09-28T03:20:27;10.05;;;4.57;;
73684;SDS011;61985;51.070;14.064;2022-09-28T03:22:54;10.98;;;5.38;;
73684;SDS011;61985;51.070;14.064;2022-09-28T03:25:19;10.25;;;4.68;;
73684;SDS011;61985;51.070;14.064;2022-09-28T03:27:45;10.88;;;5.40;;
73684;SDS011;61985;51.070;14.064;2022-09-28T03:30:11;9.15;;;4.45;;
73684;SDS011;61985;51.070;14.064;2022-09-28T03:32:37;11.77;;;5.75;;
73684;SDS011;61985;51.070;14.064;2022-09-28T03:35:03;10.13;;;4.90;;
73684;SDS011;61985;51.070;14.064;2022-09-28T03:40:55;11.77;;;5.38;;
73684;SDS011;61985;51.070;14.064;2022-09-28T03:43:22;10.27;;;5.35;;
73684;SDS011;61985;51.070;14.064;2022-09-28T03:45:52;11.80;;;5.63;;
73684;SDS011;61985;51.070;14.064;2022-09-28T03:48:25;10.90;;;5.65;;
73684;SDS011;61985;51.070;14.064;2022-09-28T03:50:56;14.25;;;5.82;;
73684;SDS011;61985;51.070;14.064;2022-09-28T03:53:29;12.77;;;6.32;;
73684;SDS011;61985;51.070;14.064;2022-09-28T03:56:00;10.85;;;5.55;;
73684;SDS011;61985;51.070;14.064;2022-09-28T03:58:27;12.90;;;5.95;;
73684;SDS011;61985;51.070;14.064;2022-09-28T04:00:52;11.68;;;6.15;;
73684;SDS011;61985;51.070;14.064;2022-09-28T04:03:18;12.57;;;5.97;;
73684;SDS011;61985;51.070;14.064;2022-09-28T04:05:50;12.73;;;6.25;;
73684;SDS011;61985;51.070;14.064;2022-09-28T04:08:16;12.23;;;6.38;;
73684;SDS011;61985;51.070;14.064;2022-09-28T04:10:42;12.80;;;6.57;;
73684;SDS011;61985;51.070;14.064;2022-09-28T04:13:07;11.73;;;6.05;;
73684;SDS011;61985;51.070;14.064;2022-09-28T04:15:33;12.70;;;6.20;;
73684;SDS011;61985;51.070;14.064;2022-09-28T04:17:58;14.70;;;6.45;;
73684;SDS011;61985;51.070;14.064;2022-09-28T04:20:23;12.90;;;6.90;;
73684;SDS011;61985;51.070;14.064;2022-09-28T04:22:49;12.13;;;6.40;;
73684;SDS011;61985;51.070;14.064;2022-09-28T04:25:14;16.00;;;7.25;;
73684;SDS011;61985;51.070;14.064;2022-09-28T04:27:40;12.68;;;5.95;;
73684;SDS011;61985;51.070;14.064;2022-09-28T04:30:24;14.60;;;7.05;;
73684;SDS011;61985;51.070;14.064;2022-09-28T04:32:49;15.77;;;7.32;;
73684;SDS011;61985;51.070;14.064;2022-09-28T04:35:14;15.05;;;7.95;;
73684;SDS011;61985;51.070;14.064;2022-09-28T04:37:40;16.08;;;7.43;;
73684;SDS011;61985;51.070;14.064;2022-09-28T04:40:05;14.77;;;7.22;;
73684;SDS011;61985;51.070;14.064;2022-09-28T04:42:31;14.27;;;6.82;;
73684;SDS011;61985;51.070;14.064;2022-09-28T04:44:57;12.02;;;6.95;;
73684;SDS011;61985;51.070;14.064;2022-09-28T04:47:23;11.93;;;6.78;;
73684;SDS011;61985;51.070;14.064;2022-09-28T04:49:49;14.18;;;6.85;;
73684;SDS011;61985;51.070;14.064;2022-09-28T04:52:14;15.10;;;7.80;;
73684;SDS011;61985;51.070;14.064;2022-09-28T04:54:40;14.98;;;7.55;;
73684;SDS011;61985;51.070;14.064;2022-09-28T04:57:05;14.88;;;6.90;;
73684;SDS011;61985;51.070;14.064;2022-09-28T04:59:31;14.55;;;7.38;;
73684;SDS011;61985;51.070;14.064;2022-09-28T05:01:57;12.65;;;7.07;;
73684;SDS011;61985;51.070;14.064;2022-09-28T05:04:22;17.85;;;7.13;;
73684;SDS011;61985;51.070;14.064;2022-09-28T05:06:48;13.38;;;6.90;;
73684;SDS011;61985;51.070;14.064;2022-09-28T05:09:14;13.35;;;7.50;;
73684;SDS011;61985;51.070;14.064;2022-09-28T05:11:40;12.45;;;6.20;;
73684;SDS011;61985;51.070;14.064;2022-09-28T05:14:05;13.60;;;6.85;;
73684;SDS011;61985;51.070;14.064;2022-09-28T05:16:31;14.77;;;7.38;;
73684;SDS011;61985;51.070;14.064;2022-09-28T05:18:57;11.02;;;6.88;;
73684;SDS011;61985;51.070;14.064;2022-09-28T05:21:23;12.75;;;7.13;;
73684;SDS011;61985;51.070;14.064;2022-09-28T05:23:50;13.52;;;6.88;;
73684;SDS011;61985;51.070;14.064;2022-09-28T05:26:16;12.27;;;6.88;;
73684;SDS011;61985;51.070;14.064;2022-09-28T05:28:42;13.02;;;6.85;;
73684;SDS011;61985;51.070;14.064;2022-09-28T05:31:08;13.18;;;6.60;;
73684;SDS011;61985;51.070;14.064;2022-09-28T05:33:34;11.90;;;6.30;;
73684;SDS011;61985;51.070;14.064;2022-09-28T05:35:59;13.07;;;6.75;;
73684;SDS011;61985;51.070;14.064;2022-09-28T05:38:25;12.25;;;6.63;;
73684;SDS011;61985;51.070;14.064;2022-09-28T05:40:50;13.27;;;6.55;;
73684;SDS011;61985;51.070;14.064;2022-09-28T05:56:52;9.57;;;5.90;;
73684;SDS011;61985;51.070;14.064;2022-09-28T06:07:12;10.23;;;5.88;;
73684;SDS011;61985;51.070;14.064;2022-09-28T06:09:44;11.13;;;5.63;;
73684;SDS011;61985;51.070;14.064;2022-09-28T06:25:08;9.75;;;5.30;;
73684;SDS011;61985;51.070;14.064;2022-09-28T06:27:34;9.82;;;5.65;;
73684;SDS011;61985;51.070;14.064;2022-09-28T06:29:59;8.05;;;4.90;;
73684;SDS011;61985;51.070;14.064;2022-09-28T06:32:26;6.88;;;3.90;;
73684;SDS011;61985;51.070;14.064;2022-09-28T06:35:14;5.63;;;3.30;;
73684;SDS011;61985;51.070;14.064;2022-09-28T06:37:39;8.90;;;3.95;;
73684;SDS011;61985;51.070;14.064;2022-09-28T06:40:05;6.68;;;3.78;;
73684;SDS011;61985;51.070;14.064;2022-09-28T06:50:25;6.00;;;3.28;;
73684;SDS011;61985;51.070;14.064;2022-09-28T06:52:54;6.63;;;3.65;;
73684;SDS011;61985;51.070;14.064;2022-09-28T06:58:00;8.57;;;3.63;;
73684;SDS011;61985;51.070;14.064;2022-09-28T07:00:26;6.07;;;3.20;;
73684;SDS011;61985;51.070;14.064;2022-09-28T07:02:52;5.63;;;3.45;;
73684;SDS011;61985;51.070;14.064;2022-09-28T07:05:17;6.80;;;3.08;;
73684;SDS011;61985;51.070;14.064;2022-09-28T07:07:43;5.85;;;3.17;;
73684;SDS011;61985;51.070;14.064;2022-09-28T07:10:11;5.22;;;3.10;;
73684;SDS011;61985;51.070;14.064;2022-09-28T07:12:36;7.10;;;3.15;;
73684;SDS011;61985;51.070;14.064;2022-09-28T07:15:05;6.07;;;2.50;;
73684;SDS011;61985;51.070;14.064;2022-09-28T07:17:31;5.80;;;3.03;;
73684;SDS011;61985;51.070;14.064;2022-09-28T07:19:58;7.18;;;2.78;;
73684;SDS011;61985;51.070;14.064;2022-09-28T07:22:24;4.05;;;2.70;;
73684;SDS011;61985;51.070;14.064;2022-09-28T07:30:15;3.67;;;2.40;;
73684;SDS011;61985;51.070;14.064;2022-09-28T07:32:41;5.95;;;2.50;;
73684;SDS011;61985;51.070;14.064;2022-09-28T07:35:09;3.55;;;2.25;;
73684;SDS011;61985;51.070;14.064;2022-09-28T07:43:08;3.80;;;2.40;;
73684;SDS011;61985;51.070;14.064;2022-09-28T07:45:42;4.45;;;2.40;;
73684;SDS011;61985;51.070;14.064;2022-09-28T07:51:01;4.13;;;2.40;;
73684;SDS011;61985;51.070;14.064;2022-09-28T07:53:29;4.82;;;2.42;;
73684;SDS011;61985;51.070;14.064;2022-09-28T07:55:56;4.90;;;2.53;;
73684;SDS011;61985;51.070;14.064;2022-09-28T07:58:31;5.15;;;2.70;;
73684;SDS011;61985;51.070;14.064;2022-09-28T08:01:08;3.55;;;2.47;;
73684;SDS011;61985;51.070;14.064;2022-09-28T08:29:30;3.75;;;2.30;;
73684;SDS011;61985;51.070;14.064;2022-09-28T08:32:28;3.75;;;2.67;;
73684;SDS011;61985;51.070;14.064;2022-09-28T08:35:22;5.75;;;2.88;;
73684;SDS011;61985;51.070;14.064;2022-09-28T08:38:08;6.22;;;3.10;;
73684;SDS011;61985;51.070;14.064;2022-09-28T10:20:02;10.48;;;4.70;;
73684;SDS011;61985;51.070;14.064;2022-09-28T10:22:29;9.18;;;3.88;;
73684;SDS011;61985;51.070;14.064;2022-09-28T10:24:55;12.25;;;5.05;;
73684;SDS011;61985;51.070;14.064;2022-09-28T10:27:27;9.40;;;4.03;;
73684;SDS011;61985;51.070;14.064;2022-09-28T10:29:56;11.23;;;5.80;;
73684;SDS011;61985;51.070;14.064;2022-09-28T10:32:27;8.50;;;3.38;;
73684;SDS011;61985;51.070;14.064;2022-09-28T10:35:40;7.47;;;2.90;;
73684;SDS011;61985;51.070;14.064;2022-09-28T10:40:48;11.82;;;4.28;;
73684;SDS011;61985;51.070;14.064;2022-09-28T10:43:22;11.60;;;4.20;;
73684;SDS011;61985;51.070;14.064;2022-09-28T10:46:09;13.50;;;3.85;;
73684;SDS011;61985;51.070;14.064;2022-09-28T10:51:11;7.35;;;2.75;;
73684;SDS011;61985;51.070;14.064;2022-09-28T10:53:37;12.02;;;4.38;;
73684;SDS011;61985;51.070;14.064;2022-09-28T10:56:06;9.30;;;4.07;;
73684;SDS011;61985;51.070;14.064;2022-09-28T10:58:43;6.20;;;3.35;;
73684;SDS011;61985;51.070;14.064;2022-09-28T11:03:46;11.57;;;5.30;;
73684;SDS011;61985;51.070;14.064;2022-09-28T11:06:14;7.88;;;4.05;;
73684;SDS011;61985;51.070;14.064;2022-09-28T11:08:48;8.48;;;4.03;;
73684;SDS011;61985;51.070;14.064;2022-09-28T11:11:14;7.32;;;3.67;;
73684;SDS011;61985;51.070;14.064;2022-09-28T11:13:53;6.18;;;3.00;;
73684;SDS011;61985;51.070;14.064;2022-09-28T11:18:55;6.78;;;2.97;;
73684;SDS011;61985;51.070;14.064;2022-09-28T11:21:26;5.68;;;3.03;;
73684;SDS011;61985;51.070;14.064;2022-09-28T11:23:57;6.55;;;3.00;;
73684;SDS011;61985;51.070;14.064;2022-09-28T11:26:22;3.20;;;2.00;;
73684;SDS011;61985;51.070;14.064;2022-09-28T11:28:51;4.10;;;1.75;;
73684;SDS011;61985;51.070;14.064;2022-09-28T11:31:22;4.35;;;2.10;;
73684;SDS011;61985;51.070;14.064;2022-09-28T11:33:50;5.10;;;2.25;;
73684;SDS011;61985;51.070;14.064;2022-09-28T11:36:32;4.18;;;1.85;;
73684;SDS011;61985;51.070;14.064;2022-09-28T11:44:48;2.40;;;1.45;;
73684;SDS011;61985;51.070;14.064;2022-09-28T11:50:27;2.45;;;1.70;;
73684;SDS011;61985;51.070;14.064;2022-09-28T11:53:07;5.65;;;3.17;;
73684;SDS011;61985;51.070;14.064;2022-09-28T11:58:34;7.30;;;2.30;;
73684;SDS011;61985;51.070;14.064;2022-09-28T12:01:18;5.00;;;1.90;;
73684;SDS011;61985;51.070;14.064;2022-09-28T12:03:57;4.75;;;2.25;;
73684;SDS011;61985;51.070;14.064;2022-09-28T12:06:37;2.05;;;1.60;;
73684;SDS011;61985;51.070;14.064;2022-09-28T12:09:16;2.43;;;1.97;;
73684;SDS011;61985;51.070;14.064;2022-09-28T12:11:48;3.58;;;1.90;;
73684;SDS011;61985;51.070;14.064;2022-09-28T12:14:22;2.88;;;1.77;;
73684;SDS011;61985;51.070;14.064;2022-09-28T12:16:54;3.47;;;2.35;;
73684;SDS011;61985;51.070;14.064;2022-09-28T12:19:32;5.30;;;2.60;;
73684;SDS011;61985;51.070;14.064;2022-09-28T12:22:00;4.25;;;2.25;;
73684;SDS011;61985;51.070;14.064;2022-09-28T12:24:33;3.55;;;2.40;;
73684;SDS011;61985;51.070;14.064;2022-09-28T12:29:45;3.65;;;2.20;;
73684;SDS011;61985;51.070;14.064;2022-09-28T12:35:13;4.03;;;2.50;;
73684;SDS011;61985;51.070;14.064;2022-09-28T12:40:30;4.93;;;2.17;;
73684;SDS011;61985;51.070;14.064;2022-09-28T12:46:01;1.70;;;1.60;;
73684;SDS011;61985;51.070;14.064;2022-09-28T12:48:54;2.08;;;1.50;;
73684;SDS011;61985;51.070;14.064;2022-09-28T12:55:20;3.92;;;1.90;;
73684;SDS011;61985;51.070;14.064;2022-09-28T13:04:05;1.77;;;0.93;;
73684;SDS011;61985;51.070;14.064;2022-09-28T13:06:48;1.30;;;1.10;;
73684;SDS011;61985;51.070;14.064;2022-09-28T13:09:19;2.10;;;1.10;;
73684;SDS011;61985;51.070;14.064;2022-09-28T13:20:07;1.95;;;1.13;;
73684;SDS011;61985;51.070;14.064;2022-09-28T13:25:22;1.55;;;1.02;;
73684;SDS011;61985;51.070;14.064;2022-09-28T13:27:55;0.80;;;0.80;;
73684;SDS011;61985;51.070;14.064;2022-09-28T13:30:24;1.27;;;0.90;;
73684;SDS011;61985;51.070;14.064;2022-09-28T13:32:51;1.20;;;0.80;;
73684;SDS011;61985;51.070;14.064;2022-09-28T13:35:20;1.08;;;0.98;;
73684;SDS011;61985;51.070;14.064;2022-09-28T13:37:46;1.38;;;1.00;;
73684;SDS011;61985;51.070;14.064;2022-09-28T13:40:12;1.67;;;1.20;;
73684;SDS011;61985;51.070;14.064;2022-09-28T13:58:49;1.92;;;1.15;;
73684;SDS011;61985;51.070;14.064;2022-09-28T14:01:23;1.20;;;1.10;;
73684;SDS011;61985;51.070;14.064;2022-09-28T14:06:43;1.40;;;1.10;;
73684;SDS011;61985;51.070;14.064;2022-09-28T14:11:42;1.00;;;0.90;;
73684;SDS011;61985;51.070;14.064;2022-09-28T14:16:44;2.20;;;0.98;;
73684;SDS011;61985;51.070;14.064;2022-09-28T14:35:46;1.27;;;0.98;;
73684;SDS011;61985;51.070;14.064;2022-09-28T14:38:20;1.38;;;1.13;;
73684;SDS011;61985;51.070;14.064;2022-09-28T14:56:36;2.05;;;1.42;;
73684;SDS011;61985;51.070;14.064;2022-09-28T14:59:02;2.35;;;1.23;;
73684;SDS011;61985;51.070;14.064;2022-09-28T15:01:30;1.40;;;1.23;;
73684;SDS011;61985;51.070;14.064;2022-09-28T15:03:59;1.52;;;1.15;;
73684;SDS011;61985;51.070;14.064;2022-09-28T15:06:42;3.65;;;2.10;;
73684;SDS011;61985;51.070;14.064;2022-09-28T15:12:14;1.33;;;1.13;;
73684;SDS011;61985;51.070;14.064;2022-09-28T15:14:43;1.70;;;1.13;;
73684;SDS011;61985;51.070;14.064;2022-09-28T15:17:11;1.30;;;1.20;;
73684;SDS011;61985;51.070;14.064;2022-09-28T15:19:54;1.27;;;1.17;;
73684;SDS011;61985;51.070;14.064;2022-09-28T15:22:26;4.05;;;3.05;;
73684;SDS011;61985;51.070;14.064;2022-09-28T15:24:56;1.50;;;1.00;;
73684;SDS011;61985;51.070;14.064;2022-09-28T15:29:57;1.25;;;1.10;;
73684;SDS011;61985;51.070;14.064;2022-09-28T15:32:49;1.58;;;1.13;;
73684;SDS011;61985;51.070;14.064;2022-09-28T15:35:19;3.60;;;1.02;;
73684;SDS011;61985;51.070;14.064;2022-09-28T15:37:46;1.25;;;1.10;;
73684;SDS011;61985;51.070;14.064;2022-09-28T15:40:37;1.55;;;1.17;;
73684;SDS011;61985;51.070;14.064;2022-09-28T15:43:06;1.00;;;0.90;;
73684;SDS011;61985;51.070;14.064;2022-09-28T15:46:06;1.60;;;1.00;;
73684;SDS011;61985;51.070;14.064;2022-09-28T15:51:20;2.13;;;1.20;;
73684;SDS011;61985;51.070;14.064;2022-09-28T15:53:56;1.20;;;1.08;;
73684;SDS011;61985;51.070;14.064;2022-09-28T15:59:36;1.10;;;1.00;;
73684;SDS011;61985;51.070;14.064;2022-09-28T16:02:16;1.50;;;1.10;;
73684;SDS011;61985;51.070;14.064;2022-09-28T16:04:45;1.80;;;1.08;;
73684;SDS011;61985;51.070;14.064;2022-09-28T16:12:28;2.47;;;1.70;;
73684;SDS011;61985;51.070;14.064;2022-09-28T16:15:05;1.10;;;1.00;;
73684;SDS011;61985;51.070;14.064;2022-09-28T16:17:48;1.85;;;1.30;;
73684;SDS011;61985;51.070;14.064;2022-09-28T16:20:24;2.07;;;1.23;;
73684;SDS011;61985;51.070;14.064;2022-09-28T16:22:57;1.80;;;1.27;;
73684;SDS011;61985;51.070;14.064;2022-09-28T16:25:29;4.10;;;2.50;;
73684;SDS011;61985;51.070;14.064;2022-09-28T16:27:57;1.25;;;1.15;;
73684;SDS011;61985;51.070;14.064;2022-09-28T16:30:23;1.63;;;1.20;;
73684;SDS011;61985;51.070;14.064;2022-09-28T16:35:20;3.00;;;1.55;;
73684;SDS011;61985;51.070;14.064;2022-09-28T16:40:37;3.78;;;1.80;;
73684;SDS011;61985;51.070;14.064;2022-09-28T16:43:05;2.72;;;1.80;;
73684;SDS011;61985;51.070;14.064;2022-09-28T16:45:32;3.35;;;1.90;;
73684;SDS011;61985;51.070;14.064;2022-09-28T16:47:59;2.75;;;1.77;;
73684;SDS011;61985;51.070;14.064;2022-09-28T16:50:25;2.65;;;1.88;;
73684;SDS011;61985;51.070;14.064;2022-09-28T16:52:55;3.10;;;2.00;;
73684;SDS011;61985;51.070;14.064;2022-09-28T16:55:42;4.90;;;2.00;;
73684;SDS011;61985;51.070;14.064;2022-09-28T16:58:08;3.53;;;2.22;;
73684;SDS011;61985;51.070;14.064;2022-09-28T17:00:33;3.33;;;2.22;;
73684;SDS011;61985;51.070;14.064;2022-09-28T17:02:59;3.50;;;2.25;;
73684;SDS011;61985;51.070;14.064;2022-09-28T17:05:24;5.05;;;2.00;;
73684;SDS011;61985;51.070;14.064;2022-09-28T17:07:59;4.28;;;2.10;;
73684;SDS011;61985;51.070;14.064;2022-09-28T17:10:39;2.85;;;1.70;;
73684;SDS011;61985;51.070;14.064;2022-09-28T17:13:08;3.83;;;2.00;;
73684;SDS011;61985;51.070;14.064;2022-09-28T17:15:36;3.72;;;2.20;;
73684;SDS011;61985;51.070;14.064;2022-09-28T17:18:02;3.22;;;1.98;;
73684;SDS011;61985;51.070;14.064;2022-09-28T17:20:29;2.97;;;1.90;;
73684;SDS011;61985;51.070;14.064;2022-09-28T17:22:56;3.40;;;2.20;;
73684;SDS011;61985;51.070;14.064;2022-09-28T17:25:21;2.55;;;1.73;;
73684;SDS011;61985;51.070;14.064;2022-09-28T17:27:48;2.92;;;1.98;;
73684;SDS011;61985;51.070;14.064;2022-09-28T17:30:15;4.82;;;2.38;;
73684;SDS011;61985;51.070;14.064;2022-09-28T17:32:41;3.58;;;2.17;;
73684;SDS011;61985;51.070;14.064;2022-09-28T17:35:12;3.28;;;2.08;;
73684;SDS011;61985;51.070;14.064;2022-09-28T17:37:39;4.15;;;2.40;;
73684;SDS011;61985;51.070;14.064;2022-09-28T17:40:12;3.58;;;2.30;;
73684;SDS011;61985;51.070;14.064;2022-09-28T17:42:42;3.25;;;1.90;;
73684;SDS011;61985;51.070;14.064;2022-09-28T17:45:07;4.90;;;2.40;;
73684;SDS011;61985;51.070;14.064;2022-09-28T17:47:32;3.78;;;2.10;;
73684;SDS011;61985;51.070;14.064;2022-09-28T17:49:58;3.83;;;2.35;;
73684;SDS011;61985;51.070;14.064;2022-09-28T17:52:23;5.30;;;2.80;;
73684;SDS011;61985;51.070;14.064;2022-09-28T17:54:48;5.57;;;2.90;;
73684;SDS011;61985;51.070;14.064;2022-09-28T17:57:14;4.78;;;2.50;;
73684;SDS011;61985;51.070;14.064;2022-09-28T17:59:39;4.82;;;2.83;;
73684;SDS011;61985;51.070;14.064;2022-09-28T18:02:04;3.70;;;2.45;;
73684;SDS011;61985;51.070;14.064;2022-09-28T18:04:33;8.43;;;3.10;;
73684;SDS011;61985;51.070;14.064;2022-09-28T18:06:58;8.27;;;3.45;;
73684;SDS011;61985;51.070;14.064;2022-09-28T18:09:24;9.38;;;4.30;;
73684;SDS011;61985;51.070;14.064;2022-09-28T18:11:49;5.50;;;3.42;;
73684;SDS011;61985;51.070;14.064;2022-09-28T18:14:16;6.63;;;3.13;;
73684;SDS011;61985;51.070;14.064;2022-09-28T18:16:42;6.18;;;3.33;;
73684;SDS011;61985;51.070;14.064;2022-09-28T18:19:09;6.80;;;3.30;;
73684;SDS011;61985;51.070;14.064;2022-09-28T18:21:34;4.82;;;2.67;;
73684;SDS011;61985;51.070;14.064;2022-09-28T18:24:00;5.10;;;2.83;;
73684;SDS011;61985;51.070;14.064;2022-09-28T18:26:25;4.72;;;3.03;;
73684;SDS011;61985;51.070;14.064;2022-09-28T18:28:54;4.68;;;2.88;;
73684;SDS011;61985;51.070;14.064;2022-09-28T18:31:20;6.90;;;2.90;;
73684;SDS011;61985;51.070;14.064;2022-09-28T18:33:45;5.68;;;3.35;;
73684;SDS011;61985;51.070;14.064;2022-09-28T18:36:12;5.38;;;3.08;;
73684;SDS011;61985;51.070;14.064;2022-09-28T18:38:38;10.65;;;5.20;;
73684;SDS011;61985;51.070;14.064;2022-09-28T18:43:32;13.02;;;6.55;;
73684;SDS011;61985;51.070;14.064;2022-09-28T18:45:57;15.10;;;6.88;;
73684;SDS011;61985;51.070;14.064;2022-09-28T18:48:23;9.82;;;3.97;;
73684;SDS011;61985;51.070;14.064;2022-09-28T18:50:51;6.55;;;3.50;;
73684;SDS011;61985;51.070;14.064;2022-09-28T18:53:17;7.97;;;4.07;;
73684;SDS011;61985;51.070;14.064;2022-09-28T18:55:43;6.97;;;4.00;;
73684;SDS011;61985;51.070;14.064;2022-09-28T18:58:09;8.77;;;4.55;;
73684;SDS011;61985;51.070;14.064;2022-09-28T19:00:39;12.00;;;5.47;;
73684;SDS011;61985;51.070;14.064;2022-09-28T19:03:06;14.40;;;6.65;;
73684;SDS011;61985;51.070;14.064;2022-09-28T19:05:35;16.02;;;6.40;;
73684;SDS011;61985;51.070;14.064;2022-09-28T19:08:05;10.75;;;4.88;;
73684;SDS011;61985;51.070;14.064;2022-09-28T19:10:30;6.45;;;3.30;;
73684;SDS011;61985;51.070;14.064;2022-09-28T19:12:56;7.40;;;4.07;;
73684;SDS011;61985;51.070;14.064;2022-09-28T19:15:21;11.25;;;5.35;;
73684;SDS011;61985;51.070;14.064;2022-09-28T19:17:47;8.20;;;4.25;;
73684;SDS011;61985;51.070;14.064;2022-09-28T19:20:13;8.60;;;3.78;;
73684;SDS011;61985;51.070;14.064;2022-09-28T19:22:39;8.77;;;4.43;;
73684;SDS011;61985;51.070;14.064;2022-09-28T19:25:04;9.20;;;4.30;;
73684;SDS011;61985;51.070;14.064;2022-09-28T19:27:30;8.55;;;4.32;;
73684;SDS011;61985;51.070;14.064;2022-09-28T19:29:55;10.40;;;4.20;;
73684;SDS011;61985;51.070;14.064;2022-09-28T19:32:21;10.07;;;4.05;;
73684;SDS011;61985;51.070;14.064;2022-09-28T19:34:46;9.60;;;4.20;;
73684;SDS011;61985;51.070;14.064;2022-09-28T19:37:12;8.40;;;3.65;;
73684;SDS011;61985;51.070;14.064;2022-09-28T19:39:37;8.43;;;4.60;;
73684;SDS011;61985;51.070;14.064;2022-09-28T19:42:04;10.82;;;5.35;;
73684;SDS011;61985;51.070;14.064;2022-09-28T19:44:29;11.20;;;6.10;;
73684;SDS011;61985;51.070;14.064;2022-09-28T19:49:23;9.13;;;5.43;;
73684;SDS011;61985;51.070;14.064;2022-09-28T19:51:51;9.80;;;5.45;;
73684;SDS011;61985;51.070;14.064;2022-09-28T19:54:20;9.13;;;5.43;;
73684;SDS011;61985;51.070;14.064;2022-09-28T19:56:49;9.00;;;4.90;;
73684;SDS011;61985;51.070;14.064;2022-09-28T19:59:16;10.05;;;5.43;;
73684;SDS011;61985;51.070;14.064;2022-09-28T20:01:42;9.88;;;5.35;;
73684;SDS011;61985;51.070;14.064;2022-09-28T20:04:08;9.90;;;5.22;;
73684;SDS011;61985;51.070;14.064;2022-09-28T20:06:33;10.55;;;5.35;;
73684;SDS011;61985;51.070;14.064;2022-09-28T20:08:59;9.88;;;5.53;;
73684;SDS011;61985;51.070;14.064;2022-09-28T20:11:24;8.32;;;4.93;;
73684;SDS011;61985;51.070;14.064;2022-09-28T20:13:50;8.75;;;5.15;;
73684;SDS011;61985;51.070;14.064;2022-09-28T20:16:19;8.50;;;5.10;;
73684;SDS011;61985;51.070;14.064;2022-09-28T20:18:48;7.13;;;4.32;;
73684;SDS011;61985;51.070;14.064;2022-09-28T20:21:16;8.93;;;5.15;;
73684;SDS011;61985;51.070;14.064;2022-09-28T20:23:43;8.73;;;4.72;;
73684;SDS011;61985;51.070;14.064;2022-09-28T20:26:10;8.30;;;4.57;;
73684;SDS011;61985;51.070;14.064;2022-09-28T20:28:36;7.47;;;4.30;;
73684;SDS011;61985;51.070;14.064;2022-09-28T20:33:31;7.85;;;4.43;;
73684;SDS011;61985;51.070;14.064;2022-09-28T20:36:02;8.27;;;4.63;;
73684;SDS011;61985;51.070;14.064;2022-09-28T20:38:28;9.98;;;5.40;;
73684;SDS011;61985;51.070;14.064;2022-09-28T20:40:57;10.20;;;4.75;;
73684;SDS011;61985;51.070;14.064;2022-09-28T20:43:23;7.32;;;4.38;;
73684;SDS011;61985;51.070;14.064;2022-09-28T20:45:49;8.38;;;4.35;;